Time;durP1;ratioP1;P1;durP2;ratioP2;P2;SDS_P1;SDS_P2;PMS_P1;PMS_P2;Temp;Humidity;BMP_temperature;BMP_pressure;BME280_temperature;BME280_humidity;BME280_pressure;Samples;Min_cycle;Max_cycle;Signal;HPM_P1;HPM_P2
2022/11/27 00:02:57;;;;;;;12.75;8.82;;;;;;;20.84;55.39;101510.88;20647346;28;20069;-74
2022/11/27 00:12:58;;;;;;;12.40;9.10;;;;;;;20.83;55.58;101522.34;20645500;28;20136;-74
2022/11/27 00:22:58;;;;;;;10.60;8.20;;;;;;;20.78;55.82;101518.19;20648762;28;20046;-74
2022/11/27 00:32:59;;;;;;;13.23;8.75;;;;;;;20.76;55.61;101519.22;20634620;28;20042;-74
2022/11/27 00:43:00;;;;;;;12.18;8.80;;;;;;;20.75;55.65;101523.63;20641433;28;20041;-75
2022/11/27 00:53:00;;;;;;;11.40;8.82;;;;;;;20.72;55.51;101528.22;20636705;28;20084;-74
2022/11/27 01:03:01;;;;;;;11.95;8.25;;;;;;;20.66;55.28;101533.81;20641555;28;20074;-74
2022/11/27 01:13:01;;;;;;;10.50;8.07;;;;;;;20.60;55.37;101532.38;20627726;28;20140;-74
2022/11/27 01:23:02;;;;;;;11.25;8.13;;;;;;;20.59;55.38;101533.28;20585924;28;20046;-74
2022/11/27 01:33:02;;;;;;;10.82;8.07;;;;;;;20.56;55.53;101518.53;20562589;28;20046;-74
2022/11/27 01:43:02;;;;;;;10.68;8.02;;;;;;;20.51;55.57;101531.09;20577002;28;20038;-74
2022/11/27 01:53:14;;;;;;;10.98;8.18;;;;;;;20.54;55.40;101533.56;20567751;28;20126;-74
2022/11/27 02:03:15;;;;;;;10.65;7.70;;;;;;;20.54;55.33;101536.19;20564092;28;20908;-74
2022/11/27 02:13:44;;;;;;;9.70;7.80;;;;;;;20.51;55.55;101543.41;20573424;28;20053;-74
2022/11/27 02:23:59;;;;;;;11.07;7.93;;;;;;;20.54;55.40;101544.06;20571985;28;20577;-74
2022/11/27 02:34:10;;;;;;;9.52;7.40;;;;;;;20.57;55.32;101537.81;20567764;28;20096;-75
2022/11/27 02:44:12;;;;;;;11.00;8.30;;;;;;;20.55;55.41;101540.50;20650380;28;20045;-75
2022/11/27 02:54:22;;;;;;;10.55;7.13;;;;;;;20.56;55.18;101547.47;20651019;28;20045;-75
2022/11/27 03:04:33;;;;;;;10.07;7.45;;;;;;;20.54;55.26;101545.88;20613353;28;20039;-75
2022/11/27 03:14:36;;;;;;;13.68;7.60;;;;;;;20.56;55.18;101544.00;20643949;28;20042;-75
2022/11/27 03:24:37;;;;;;;11.50;7.53;;;;;;;20.52;55.40;101545.09;20652656;28;20037;-75
2022/11/27 03:34:38;;;;;;;10.15;7.60;;;;;;;20.46;55.33;101554.22;20645038;28;20045;-75
2022/11/27 03:45:14;;;;;;;10.20;6.80;;;;;;;20.50;55.34;101560.16;20643810;28;20405;-75
2022/11/27 03:55:22;;;;;;;9.15;7.07;;;;;;;20.52;55.05;101566.16;20646468;28;20076;-74
2022/11/27 04:05:22;;;;;;;8.88;7.15;;;;;;;20.47;55.14;101562.00;20659449;28;20038;-74
2022/11/27 04:15:22;;;;;;;9.23;6.90;;;;;;;20.40;55.39;101562.44;20647841;28;20050;-74
2022/11/27 04:25:23;;;;;;;8.48;6.57;;;;;;;20.44;55.57;101559.53;20606977;28;20077;-74
2022/11/27 04:35:24;;;;;;;9.05;7.00;;;;;;;20.40;55.43;101559.81;20642252;28;20049;-74
2022/11/27 04:45:24;;;;;;;7.57;6.30;;;;;;;20.39;55.54;101558.94;20610877;28;20084;-75
2022/11/27 04:55:24;;;;;;;9.60;7.15;;;;;;;20.39;55.36;101544.97;20641139;28;20046;-76
2022/11/27 05:05:25;;;;;;;8.93;6.85;;;;;;;20.37;55.31;101539.75;20639055;28;20263;-75
2022/11/27 05:15:25;;;;;;;10.48;7.68;;;;;;;20.43;54.82;101536.81;20636200;28;20080;-75
2022/11/27 05:25:26;;;;;;;11.93;8.65;;;;;;;20.53;53.98;101546.81;20652907;28;20038;-75
2022/11/27 05:35:26;;;;;;;20.63;15.65;;;;;;;20.61;53.53;101540.16;20636735;28;20093;-75
2022/11/27 05:45:26;;;;;;;15.05;11.55;;;;;;;20.68;53.93;101532.78;20640192;28;20881;-74
2022/11/27 05:55:27;;;;;;;24.35;17.67;;;;;;;20.77;54.10;101534.91;20641704;28;20050;-77
2022/11/27 06:05:27;;;;;;;21.67;15.55;;;;;;;20.84;54.48;101538.03;20613677;28;20137;-77
2022/11/27 06:15:29;;;;;;;22.52;13.23;;;;;;;20.94;54.76;101548.88;20640321;28;20096;-80
2022/11/27 06:25:29;;;;;;;22.55;15.45;;;;;;;21.04;55.48;101559.75;20664912;28;20152;-80
2022/11/27 06:35:29;;;;;;;25.45;17.17;;;;;;;21.13;55.49;101572.38;20660311;28;20058;-81
2022/11/27 06:45:30;;;;;;;22.67;17.25;;;;;;;21.16;55.21;101561.66;20658721;28;20050;-79
2022/11/27 06:55:30;;;;;;;31.90;21.67;;;;;;;21.30;55.52;101573.16;20608550;28;22091;-80
2022/11/27 07:05:30;;;;;;;33.05;23.83;;;;;;;21.40;56.10;101579.59;20603855;28;20047;-82
2022/11/27 07:15:32;;;;;;;34.83;22.10;;;;;;;21.48;56.36;101571.22;20649576;28;20034;-78
2022/11/27 07:25:36;;;;;;;31.98;22.58;;;;;;;21.55;56.38;101564.66;20621690;28;20049;-78
2022/11/27 07:35:42;;;;;;;32.05;21.77;;;;;;;21.59;56.00;101574.09;20655327;28;20061;-80
2022/11/27 07:45:43;;;;;;;30.73;21.30;;;;;;;21.63;55.44;101574.75;20650466;28;20827;-80
2022/11/27 07:55:51;;;;;;;28.50;21.23;;;;;;;21.64;55.43;101587.84;20652061;28;20041;-81
2022/11/27 08:05:51;;;;;;;26.95;20.45;;;;;;;21.63;55.08;101577.38;20650535;28;20053;-79
2022/11/27 08:15:52;;;;;;;30.48;20.70;;;;;;;21.67;55.17;101573.63;20638703;28;20054;-81
2022/11/27 08:25:53;;;;;;;30.48;21.83;;;;;;;21.70;54.90;101570.81;20615596;28;20042;-77
2022/11/27 08:35:53;;;;;;;29.25;20.48;;;;;;;;;;20644180;28;20116;-80
2022/11/27 08:45:55;;;;;;;27.88;20.25;;;;;;;21.74;54.68;101596.88;20638201;28;20038;-80
2022/11/27 08:56:04;;;;;;;29.38;20.58;;;;;;;21.72;55.11;101598.75;20654061;28;20048;-78
2022/11/27 09:06:13;;;;;;;28.80;20.10;;;;;;;21.74;55.28;101598.69;20635824;28;20056;-82
2022/11/27 09:16:15;;;;;;;29.60;19.58;;;;;;;;;;20640502;28;20097;-79
2022/11/27 09:26:16;;;;;;;31.77;19.67;;;;;;;21.78;55.44;101608.09;20647375;28;20049;-79
2022/11/27 09:36:20;;;;;;;28.85;19.65;;;;;;;21.77;55.82;101616.94;20649718;28;20066;-80
2022/11/27 09:46:35;;;;;;;33.05;19.50;;;;;;;21.74;55.32;101609.22;20638836;28;20555;-77
2022/11/27 09:56:36;;;;;;;28.75;17.35;;;;;;;21.71;55.58;101598.88;20640498;28;20041;-78
2022/11/27 10:07:16;;;;;;;25.13;17.03;;;;;;;21.62;55.40;101579.19;20639735;28;20408;-82
2022/11/27 10:17:28;;;;;;;29.80;17.85;;;;;;;21.46;51.84;101578.38;20638110;28;20298;-83
2022/11/27 10:27:42;;;;;;;39.10;16.80;;;;;;;21.44;52.71;101573.19;20649676;28;20050;-80
2022/11/27 10:37:52;;;;;;;27.33;16.25;;;;;;;21.43;53.06;101560.94;20661712;28;20145;-81
2022/11/27 10:47:52;;;;;;;25.85;15.18;;;;;;;21.41;53.19;101566.31;20657938;28;20096;-79
2022/11/27 10:58:31;;;;;;;28.08;14.52;;;;;;;21.41;52.93;101558.41;20650736;28;21971;-78
2022/11/27 11:08:33;;;;;;;25.58;13.55;;;;;;;21.36;53.56;101549.94;20587426;28;20104;-83
2022/11/27 11:18:42;;;;;;;23.93;13.67;;;;;;;21.34;53.82;101532.53;20650256;28;20077;-79
2022/11/27 11:28:49;;;;;;;26.00;12.88;;;;;;;21.39;53.93;101523.41;20652192;28;20065;-77
2022/11/27 11:38:52;;;;;;;57.50;21.52;;;;;;;21.46;55.47;101516.00;20649817;28;20046;-77
2022/11/27 11:49:14;;;;;;;145.43;34.27;;;;;;;21.56;57.92;101501.31;20648719;28;20042;-77
2022/11/27 11:59:39;;;;;;;109.43;32.22;;;;;;;21.62;58.31;101489.56;20657892;28;20049;-78
2022/11/27 12:09:39;;;;;;;164.07;48.22;;;;;;;21.67;59.17;101490.13;20639226;28;20042;-76
2022/11/27 12:19:50;;;;;;;185.63;70.57;;;;;;;21.69;58.75;101482.09;20640049;28;20069;-77
2022/11/27 12:30:16;;;;;;;166.15;65.95;;;;;;;21.70;58.48;101475.91;20632082;28;20054;-80
2022/11/27 12:40:33;;;;;;;137.60;57.22;;;;;;;21.67;57.54;101474.31;20639190;28;20052;-80
2022/11/27 12:50:37;;;;;;;123.97;54.28;;;;;;;21.68;58.10;101465.47;20629501;28;20045;-79
2022/11/27 13:00:41;;;;;;;96.53;42.50;;;;;;;21.57;56.13;101466.13;20635303;28;20041;-79
2022/11/27 13:10:53;;;;;;;100.25;39.47;;;;;;;21.57;55.99;101460.84;20668577;28;20046;-79
2022/11/27 13:20:57;;;;;;;90.07;39.00;;;;;;;21.57;56.51;101452.13;20657787;28;20489;-79
2022/11/27 13:31:00;;;;;;;82.63;37.25;;;;;;;21.57;56.40;101454.75;20673415;28;20584;-81
2022/11/27 13:41:04;;;;;;;68.10;32.97;;;;;;;21.55;56.30;101452.16;20665959;28;20134;-77
2022/11/27 13:51:07;;;;;;;67.38;31.38;;;;;;;21.57;56.14;101447.69;20643957;28;20502;-77
2022/11/27 14:01:16;;;;;;;;;;;;;;;21.54;56.30;101458.34;20657620;28;20053;-77
2022/11/27 14:11:40;;;;;;;56.08;28.80;;;;;;;21.56;56.47;101448.63;20660609;28;19936;-77
2022/11/27 14:21:42;;;;;;;54.10;27.13;;;;;;;21.54;56.66;101454.91;20642222;28;20521;-79
2022/11/27 14:31:43;;;;;;;50.90;26.83;;;;;;;21.56;56.36;101455.66;20625630;28;20038;-77
2022/11/27 14:41:43;;;;;;;51.33;25.35;;;;;;;21.54;56.24;101460.16;20665093;28;20049;-78
2022/11/27 14:51:44;;;;;;;47.58;24.55;;;;;;;21.52;56.58;101465.53;20642602;28;20141;-76
2022/11/27 15:02:00;;;;;;;42.95;23.35;;;;;;;21.52;56.88;101470.81;20606219;28;20070;-76
2022/11/27 15:12:15;;;;;;;41.38;22.48;;;;;;;21.59;57.18;101476.56;20589727;28;20082;-76
2022/11/27 15:22:17;;;;;;;50.38;23.33;;;;;;;21.65;59.43;101475.34;20634018;28;20054;-77
2022/11/27 15:32:20;;;;;;;37.35;21.70;;;;;;;21.68;61.47;101465.47;20677785;28;20042;-78
2022/11/27 15:42:22;;;;;;;40.80;22.30;;;;;;;21.71;62.51;101467.88;20636739;28;20413;-78
2022/11/27 15:52:23;;;;;;;35.53;20.70;;;;;;;21.70;61.66;101462.72;20656450;28;20046;-77
2022/11/27 16:02:27;;;;;;;36.88;19.98;;;;;;;21.71;60.96;101467.06;20658130;28;20046;-77
2022/11/27 16:12:27;;;;;;;31.88;17.80;;;;;;;21.69;60.70;101477.69;20628704;28;20042;-77
2022/11/27 16:22:27;;;;;;;30.90;16.88;;;;;;;21.68;60.80;101452.28;20627550;28;20057;-78
2022/11/27 16:32:28;;;;;;;26.70;14.27;;;;;;;21.68;60.75;101452.28;20647060;28;20043;-78
2022/11/27 16:42:28;;;;;;;25.25;14.13;;;;;;;21.65;60.31;101449.00;20589741;28;20925;-77
2022/11/27 16:52:29;;;;;;;23.58;13.55;;;;;;;21.65;60.23;101444.56;20647867;28;20076;-77
2022/11/27 17:02:29;;;;;;;22.80;12.77;;;;;;;21.65;59.97;101430.53;20610279;28;20073;-77
2022/11/27 17:12:31;;;;;;;19.58;11.38;;;;;;;21.63;59.76;101428.00;20630152;28;20058;-76
2022/11/27 17:22:31;;;;;;;19.67;11.57;;;;;;;21.62;59.69;101425.44;20634272;28;20068;-79
2022/11/27 17:32:32;;;;;;;21.08;10.93;;;;;;;21.59;58.89;101422.09;20649242;28;20409;-78
2022/11/27 17:42:32;;;;;;;18.35;10.65;;;;;;;21.56;58.98;101418.75;20670513;28;20056;-77
2022/11/27 17:52:33;;;;;;;18.38;10.75;;;;;;;21.56;59.23;101406.44;20658418;28;20139;-82
2022/11/27 18:02:33;;;;;;;22.33;10.52;;;;;;;21.56;59.16;101395.03;20657390;28;20040;-81
2022/11/27 18:12:33;;;;;;;19.73;10.48;;;;;;;21.52;58.74;101386.47;20655277;28;20048;-81
2022/11/27 18:22:34;;;;;;;22.23;9.98;;;;;;;21.47;59.02;101385.94;20647153;28;20085;-77
2022/11/27 18:32:36;;;;;;;18.70;9.70;;;;;;;21.48;59.26;101384.13;20640705;28;20174;-79
2022/11/27 18:42:36;;;;;;;17.23;8.93;;;;;;;21.44;59.38;101371.13;20663973;28;20038;-79
2022/11/27 18:52:37;;;;;;;21.38;9.27;;;;;;;21.46;58.96;101357.00;20678840;28;20038;-82
2022/11/27 19:02:37;;;;;;;14.27;8.77;;;;;;;21.47;58.94;101371.88;20674910;28;20041;-77
2022/11/27 19:12:38;;;;;;;17.75;8.45;;;;;;;21.44;59.03;101362.41;20671767;28;20052;-79
2022/11/27 19:22:38;;;;;;;16.33;8.02;;;;;;;21.44;58.45;101372.94;20677796;28;20086;-82
2022/11/27 19:32:39;;;;;;;18.45;8.32;;;;;;;21.43;59.25;101372.09;20652746;28;20391;-82
2022/11/27 19:42:39;;;;;;;17.95;7.75;;;;;;;21.34;59.42;101372.66;20624468;28;20034;-79
2022/11/27 19:52:42;;;;;;;20.90;9.00;;;;;;;21.35;58.46;101373.50;20634685;28;20045;-78
2022/11/27 20:02:43;;;;;;;15.43;9.57;;;;;;;21.28;57.79;101370.41;20632933;28;20092;-82
2022/11/27 20:12:44;;;;;;;16.27;8.43;;;;;;;21.27;57.45;101368.72;20655023;28;20107;-78
2022/11/27 20:22:44;;;;;;;16.70;8.82;;;;;;;21.22;57.49;101350.56;20660291;28;20038;-80
2022/11/27 20:32:45;;;;;;;20.05;9.00;;;;;;;21.08;57.76;101350.56;20644738;28;20137;-81
2022/11/27 20:42:45;;;;;;;13.52;8.77;;;;;;;21.04;58.13;101347.28;20654653;28;20045;-80
2022/11/27 20:52:45;;;;;;;14.52;8.40;;;;;;;21.03;58.26;101336.84;20654315;28;20459;-81
2022/11/27 21:02:46;;;;;;;13.75;8.18;;;;;;;20.98;58.00;101323.13;20656607;28;20093;-80
2022/11/27 21:12:46;;;;;;;16.60;7.80;;;;;;;21.05;58.03;101332.34;20669712;28;20042;-80
2022/11/27 21:22:47;;;;;;;12.00;8.15;;;;;;;21.02;58.08;101336.00;20663097;28;20081;-75
2022/11/27 21:32:48;;;;;;;12.18;7.70;;;;;;;21.06;57.87;101329.59;20657787;28;20129;-80
2022/11/27 21:42:50;;;;;;;11.70;7.18;;;;;;;21.05;58.19;101327.91;20657009;28;20041;-79
2022/11/27 21:52:52;;;;;;;12.40;7.60;;;;;;;21.03;58.19;101319.28;20666784;28;20078;-79
2022/11/27 22:02:52;;;;;;;11.60;7.43;;;;;;;21.05;57.86;101316.53;20645811;28;20049;-78
2022/11/27 22:12:52;;;;;;;9.13;6.93;;;;;;;21.00;57.73;101310.72;20661016;28;20046;-80
2022/11/27 22:22:53;;;;;;;11.85;7.55;;;;;;;20.92;58.17;101313.81;20653369;28;20104;-80
2022/11/27 22:32:54;;;;;;;11.77;7.50;;;;;;;20.87;58.29;101297.47;20671833;28;20122;-80
2022/11/27 22:42:55;;;;;;;10.95;7.32;;;;;;;20.86;58.02;101298.38;20629583;28;20038;-78
2022/11/27 22:52:55;;;;;;;10.98;7.10;;;;;;;20.86;58.45;101303.66;20654975;28;20061;-80
2022/11/27 23:02:55;;;;;;;11.50;7.20;;;;;;;20.84;58.44;101297.66;20636154;28;20069;-78
2022/11/27 23:12:56;;;;;;;10.48;6.28;;;;;;;20.83;58.30;101282.81;20651637;28;20156;-79
2022/11/27 23:22:56;;;;;;;14.15;7.20;;;;;;;20.83;58.23;101283.63;20652781;28;20052;-79
2022/11/27 23:32:57;;;;;;;10.15;6.90;;;;;;;20.78;58.30;101257.59;20649570;28;20174;-81
2022/11/27 23:42:58;;;;;;;10.45;6.85;;;;;;;20.80;58.40;101228.56;20628273;28;20057;-75
2022/11/27 23:53:04;;;;;;;11.75;6.40;;;;;;;20.82;58.44;101216.13;20576568;28;20046;-81
